Mc Louth, Kansas
Current Conditions -  °F | °C
As of 2:52 PM on Saturday 20 Dec 2014 (Local Time) from KLWC Reporting Station
Overcast Overcast  
Wind Chill: 43°   Ceiling: 2400
Heat Index: 48°   Visibility: 9mi
Dew Point: 38°   Wind: 10mph
Humidity: 68%   Direction: 170°S
Pressure: 30.11"   Gusts: NA
Location:  39.1639°N, 95.2236°W
Report Text: KLWC 202052Z AUTO 17009KT 9SM OVC024 09/03 A3011 RMK AO2 SLP198 T00890033 56015
Loading
Personal Weather Stations






























Interactive Weather Map New forecast layout! Learn more

10-Day Weather Forecast

Advertisements
Track Severe Weather on mobile